sensor_id;sensor_type;location;lat;lon;timestamp;P1;durP1;ratioP1;P2;durP2;ratioP2
47625;SDS011;33342;45.574;9.252;2022-11-20T00:01:22;31.98;;;20.88;;
47625;SDS011;33342;45.574;9.252;2022-11-20T00:03:51;36.47;;;19.80;;
47625;SDS011;33342;45.574;9.252;2022-11-20T00:06:19;36.13;;;19.92;;
47625;SDS011;33342;45.574;9.252;2022-11-20T00:08:47;37.40;;;20.50;;
47625;SDS011;33342;45.574;9.252;2022-11-20T00:11:15;35.03;;;19.80;;
47625;SDS011;33342;45.574;9.252;2022-11-20T00:13:45;31.58;;;20.15;;
47625;SDS011;33342;45.574;9.252;2022-11-20T00:16:15;32.22;;;18.95;;
47625;SDS011;33342;45.574;9.252;2022-11-20T00:18:43;35.03;;;21.50;;
47625;SDS011;33342;45.574;9.252;2022-11-20T00:21:15;28.95;;;18.08;;
47625;SDS011;33342;45.574;9.252;2022-11-20T00:23:44;37.63;;;19.20;;
47625;SDS011;33342;45.574;9.252;2022-11-20T00:26:15;37.55;;;18.95;;
47625;SDS011;33342;45.574;9.252;2022-11-20T00:28:48;32.83;;;17.73;;
47625;SDS011;33342;45.574;9.252;2022-11-20T00:31:17;31.27;;;17.50;;
47625;SDS011;33342;45.574;9.252;2022-11-20T00:33:45;27.83;;;16.25;;
47625;SDS011;33342;45.574;9.252;2022-11-20T00:36:16;27.77;;;16.52;;
47625;SDS011;33342;45.574;9.252;2022-11-20T00:38:45;29.58;;;15.88;;
47625;SDS011;33342;45.574;9.252;2022-11-20T00:41:13;27.98;;;16.90;;
47625;SDS011;33342;45.574;9.252;2022-11-20T00:43:42;29.05;;;16.45;;
47625;SDS011;33342;45.574;9.252;2022-11-20T00:46:11;30.20;;;16.73;;
47625;SDS011;33342;45.574;9.252;2022-11-20T00:48:40;25.60;;;15.57;;
47625;SDS011;33342;45.574;9.252;2022-11-20T00:51:08;28.20;;;15.45;;
47625;SDS011;33342;45.574;9.252;2022-11-20T00:53:37;28.35;;;15.25;;
47625;SDS011;33342;45.574;9.252;2022-11-20T00:56:05;30.13;;;15.75;;
47625;SDS011;33342;45.574;9.252;2022-11-20T00:58:35;28.83;;;15.25;;
47625;SDS011;33342;45.574;9.252;2022-11-20T01:03:34;21.85;;;13.88;;
47625;SDS011;33342;45.574;9.252;2022-11-20T01:06:03;26.15;;;14.43;;
47625;SDS011;33342;45.574;9.252;2022-11-20T01:11:06;22.35;;;13.52;;
47625;SDS011;33342;45.574;9.252;2022-11-20T01:13:35;25.30;;;13.50;;
47625;SDS011;33342;45.574;9.252;2022-11-20T01:16:07;25.15;;;13.98;;
47625;SDS011;33342;45.574;9.252;2022-11-20T01:18:36;24.65;;;13.13;;
47625;SDS011;33342;45.574;9.252;2022-11-20T01:21:05;25.15;;;14.43;;
47625;SDS011;33342;45.574;9.252;2022-11-20T01:23:34;24.30;;;13.20;;
47625;SDS011;33342;45.574;9.252;2022-11-20T01:26:04;24.77;;;13.77;;
47625;SDS011;33342;45.574;9.252;2022-11-20T01:28:32;21.65;;;12.85;;
47625;SDS011;33342;45.574;9.252;2022-11-20T01:31:00;20.92;;;12.88;;
47625;SDS011;33342;45.574;9.252;2022-11-20T01:33:27;22.02;;;12.82;;
47625;SDS011;33342;45.574;9.252;2022-11-20T01:36:02;23.30;;;12.70;;
47625;SDS011;33342;45.574;9.252;2022-11-20T01:38:30;20.80;;;13.55;;
47625;SDS011;33342;45.574;9.252;2022-11-20T01:40:57;19.30;;;12.02;;
47625;SDS011;33342;45.574;9.252;2022-11-20T01:43:25;22.48;;;12.07;;
47625;SDS011;33342;45.574;9.252;2022-11-20T01:48:20;24.13;;;12.80;;
47625;SDS011;33342;45.574;9.252;2022-11-20T01:50:51;21.20;;;11.60;;
47625;SDS011;33342;45.574;9.252;2022-11-20T01:53:21;22.70;;;11.85;;
47625;SDS011;33342;45.574;9.252;2022-11-20T01:55:55;24.08;;;11.60;;
47625;SDS011;33342;45.574;9.252;2022-11-20T01:58:25;19.00;;;12.63;;
47625;SDS011;33342;45.574;9.252;2022-11-20T02:00:58;21.20;;;12.25;;
47625;SDS011;33342;45.574;9.252;2022-11-20T02:03:26;20.25;;;12.75;;
47625;SDS011;33342;45.574;9.252;2022-11-20T02:06:16;23.42;;;11.75;;
47625;SDS011;33342;45.574;9.252;2022-11-20T02:08:45;22.33;;;12.38;;
47625;SDS011;33342;45.574;9.252;2022-11-20T02:11:12;20.75;;;11.50;;
47625;SDS011;33342;45.574;9.252;2022-11-20T02:13:39;18.48;;;10.98;;
47625;SDS011;33342;45.574;9.252;2022-11-20T02:16:14;22.60;;;11.68;;
47625;SDS011;33342;45.574;9.252;2022-11-20T02:18:42;21.40;;;12.48;;
47625;SDS011;33342;45.574;9.252;2022-11-20T02:21:14;19.90;;;11.65;;
47625;SDS011;33342;45.574;9.252;2022-11-20T02:29:10;18.20;;;11.00;;
47625;SDS011;33342;45.574;9.252;2022-11-20T02:31:38;18.70;;;10.55;;
47625;SDS011;33342;45.574;9.252;2022-11-20T02:34:08;17.38;;;10.95;;
47625;SDS011;33342;45.574;9.252;2022-11-20T02:36:35;19.20;;;10.05;;
47625;SDS011;33342;45.574;9.252;2022-11-20T02:39:04;19.95;;;10.75;;
47625;SDS011;33342;45.574;9.252;2022-11-20T02:41:36;20.48;;;11.15;;
47625;SDS011;33342;45.574;9.252;2022-11-20T02:44:04;18.52;;;11.82;;
47625;SDS011;33342;45.574;9.252;2022-11-20T02:46:31;17.30;;;11.07;;
47625;SDS011;33342;45.574;9.252;2022-11-20T02:49:00;18.42;;;11.13;;
47625;SDS011;33342;45.574;9.252;2022-11-20T02:51:31;18.50;;;10.90;;
47625;SDS011;33342;45.574;9.252;2022-11-20T02:53:58;20.58;;;10.95;;
47625;SDS011;33342;45.574;9.252;2022-11-20T02:56:26;19.92;;;11.20;;
47625;SDS011;33342;45.574;9.252;2022-11-20T02:58:53;17.20;;;10.45;;
47625;SDS011;33342;45.574;9.252;2022-11-20T03:01:21;16.17;;;9.60;;
47625;SDS011;33342;45.574;9.252;2022-11-20T03:03:49;16.33;;;10.23;;
47625;SDS011;33342;45.574;9.252;2022-11-20T03:06:16;20.55;;;10.75;;
47625;SDS011;33342;45.574;9.252;2022-11-20T03:08:43;17.50;;;9.63;;
47625;SDS011;33342;45.574;9.252;2022-11-20T03:11:10;16.88;;;10.23;;
47625;SDS011;33342;45.574;9.252;2022-11-20T03:13:37;16.83;;;10.05;;
47625;SDS011;33342;45.574;9.252;2022-11-20T03:16:08;20.58;;;9.93;;
47625;SDS011;33342;45.574;9.252;2022-11-20T03:18:39;17.42;;;10.80;;
47625;SDS011;33342;45.574;9.252;2022-11-20T03:21:08;19.45;;;9.93;;
47625;SDS011;33342;45.574;9.252;2022-11-20T03:23:36;21.23;;;9.95;;
47625;SDS011;33342;45.574;9.252;2022-11-20T03:26:10;16.23;;;10.02;;
47625;SDS011;33342;45.574;9.252;2022-11-20T03:28:37;18.48;;;9.93;;
47625;SDS011;33342;45.574;9.252;2022-11-20T03:31:12;18.38;;;10.38;;
47625;SDS011;33342;45.574;9.252;2022-11-20T03:33:40;16.92;;;9.65;;
47625;SDS011;33342;45.574;9.252;2022-11-20T03:36:10;19.00;;;9.35;;
47625;SDS011;33342;45.574;9.252;2022-11-20T03:38:39;19.05;;;9.82;;
47625;SDS011;33342;45.574;9.252;2022-11-20T03:41:09;15.88;;;8.55;;
47625;SDS011;33342;45.574;9.252;2022-11-20T03:43:40;14.80;;;8.80;;
47625;SDS011;33342;45.574;9.252;2022-11-20T03:46:07;13.77;;;8.23;;
47625;SDS011;33342;45.574;9.252;2022-11-20T03:48:34;20.48;;;8.63;;
47625;SDS011;33342;45.574;9.252;2022-11-20T03:53:38;15.43;;;8.90;;
47625;SDS011;33342;45.574;9.252;2022-11-20T03:56:06;19.25;;;9.05;;
47625;SDS011;33342;45.574;9.252;2022-11-20T03:58:34;13.68;;;8.65;;
47625;SDS011;33342;45.574;9.252;2022-11-20T04:01:09;16.48;;;9.15;;
47625;SDS011;33342;45.574;9.252;2022-11-20T04:03:37;16.83;;;9.02;;
47625;SDS011;33342;45.574;9.252;2022-11-20T04:06:07;14.13;;;7.65;;
47625;SDS011;33342;45.574;9.252;2022-11-20T04:08:36;14.98;;;8.13;;
47625;SDS011;33342;45.574;9.252;2022-11-20T04:11:11;15.82;;;8.07;;
47625;SDS011;33342;45.574;9.252;2022-11-20T04:13:38;14.63;;;8.27;;
47625;SDS011;33342;45.574;9.252;2022-11-20T04:16:06;13.55;;;8.55;;
47625;SDS011;33342;45.574;9.252;2022-11-20T04:18:35;17.00;;;8.93;;
47625;SDS011;33342;45.574;9.252;2022-11-20T04:21:02;14.00;;;8.95;;
47625;SDS011;33342;45.574;9.252;2022-11-20T04:23:31;14.15;;;8.70;;
47625;SDS011;33342;45.574;9.252;2022-11-20T04:26:05;12.98;;;7.45;;
47625;SDS011;33342;45.574;9.252;2022-11-20T04:28:34;16.00;;;8.63;;
47625;SDS011;33342;45.574;9.252;2022-11-20T04:31:24;12.13;;;7.30;;
47625;SDS011;33342;45.574;9.252;2022-11-20T04:33:50;13.85;;;8.18;;
47625;SDS011;33342;45.574;9.252;2022-11-20T04:36:19;13.50;;;6.95;;
47625;SDS011;33342;45.574;9.252;2022-11-20T04:38:51;12.23;;;7.50;;
47625;SDS011;33342;45.574;9.252;2022-11-20T04:41:28;14.85;;;8.00;;
47625;SDS011;33342;45.574;9.252;2022-11-20T04:43:58;13.27;;;7.32;;
47625;SDS011;33342;45.574;9.252;2022-11-20T04:46:30;12.70;;;7.50;;
47625;SDS011;33342;45.574;9.252;2022-11-20T04:49:02;14.45;;;6.93;;
47625;SDS011;33342;45.574;9.252;2022-11-20T04:51:30;14.02;;;7.60;;
47625;SDS011;33342;45.574;9.252;2022-11-20T04:53:57;13.35;;;7.07;;
47625;SDS011;33342;45.574;9.252;2022-11-20T04:56:24;13.05;;;7.13;;
47625;SDS011;33342;45.574;9.252;2022-11-20T04:58:51;12.55;;;6.57;;
47625;SDS011;33342;45.574;9.252;2022-11-20T05:01:20;15.95;;;7.35;;
47625;SDS011;33342;45.574;9.252;2022-11-20T05:03:48;11.60;;;6.57;;
47625;SDS011;33342;45.574;9.252;2022-11-20T05:06:17;11.38;;;6.63;;
47625;SDS011;33342;45.574;9.252;2022-11-20T05:08:45;11.85;;;6.78;;
47625;SDS011;33342;45.574;9.252;2022-11-20T05:11:14;11.63;;;6.18;;
47625;SDS011;33342;45.574;9.252;2022-11-20T05:13:43;13.27;;;7.45;;
47625;SDS011;33342;45.574;9.252;2022-11-20T05:16:15;13.45;;;6.47;;
47625;SDS011;33342;45.574;9.252;2022-11-20T05:18:43;12.70;;;6.85;;
47625;SDS011;33342;45.574;9.252;2022-11-20T05:21:11;12.55;;;6.20;;
47625;SDS011;33342;45.574;9.252;2022-11-20T05:23:39;12.52;;;6.47;;
47625;SDS011;33342;45.574;9.252;2022-11-20T05:26:07;12.80;;;6.90;;
47625;SDS011;33342;45.574;9.252;2022-11-20T05:28:38;11.32;;;6.40;;
47625;SDS011;33342;45.574;9.252;2022-11-20T05:31:06;11.18;;;6.10;;
47625;SDS011;33342;45.574;9.252;2022-11-20T05:33:41;11.88;;;6.03;;
47625;SDS011;33342;45.574;9.252;2022-11-20T05:36:10;11.32;;;6.20;;
47625;SDS011;33342;45.574;9.252;2022-11-20T05:38:39;10.18;;;5.75;;
47625;SDS011;33342;45.574;9.252;2022-11-20T05:41:07;12.77;;;6.35;;
47625;SDS011;33342;45.574;9.252;2022-11-20T05:43:36;11.00;;;5.90;;
47625;SDS011;33342;45.574;9.252;2022-11-20T05:46:04;14.70;;;6.30;;
47625;SDS011;33342;45.574;9.252;2022-11-20T05:48:32;11.30;;;5.72;;
47625;SDS011;33342;45.574;9.252;2022-11-20T05:51:01;10.82;;;6.05;;
47625;SDS011;33342;45.574;9.252;2022-11-20T05:53:29;11.07;;;6.47;;
47625;SDS011;33342;45.574;9.252;2022-11-20T05:56:38;11.02;;;5.65;;
47625;SDS011;33342;45.574;9.252;2022-11-20T05:58:47;13.32;;;6.03;;
47625;SDS011;33342;45.574;9.252;2022-11-20T06:01:24;10.00;;;5.88;;
47625;SDS011;33342;45.574;9.252;2022-11-20T06:03:52;12.85;;;5.45;;
47625;SDS011;33342;45.574;9.252;2022-11-20T06:06:20;10.57;;;6.18;;
47625;SDS011;33342;45.574;9.252;2022-11-20T06:08:47;9.98;;;5.40;;
47625;SDS011;33342;45.574;9.252;2022-11-20T06:11:15;11.63;;;5.70;;
47625;SDS011;33342;45.574;9.252;2022-11-20T06:13:42;12.63;;;5.88;;
47625;SDS011;33342;45.574;9.252;2022-11-20T06:16:10;12.60;;;5.63;;
47625;SDS011;33342;45.574;9.252;2022-11-20T06:18:38;10.60;;;5.35;;
47625;SDS011;33342;45.574;9.252;2022-11-20T06:23:36;10.50;;;5.13;;
47625;SDS011;33342;45.574;9.252;2022-11-20T06:26:05;8.93;;;4.93;;
47625;SDS011;33342;45.574;9.252;2022-11-20T06:28:33;12.75;;;6.15;;
47625;SDS011;33342;45.574;9.252;2022-11-20T06:31:01;11.02;;;5.45;;
47625;SDS011;33342;45.574;9.252;2022-11-20T06:33:28;12.65;;;5.88;;
47625;SDS011;33342;45.574;9.252;2022-11-20T06:35:56;11.85;;;6.07;;
47625;SDS011;33342;45.574;9.252;2022-11-20T06:38:27;10.98;;;5.57;;
47625;SDS011;33342;45.574;9.252;2022-11-20T06:40:55;9.80;;;5.40;;
47625;SDS011;33342;45.574;9.252;2022-11-20T06:43:22;10.93;;;5.32;;
47625;SDS011;33342;45.574;9.252;2022-11-20T06:45:53;10.93;;;4.95;;
47625;SDS011;33342;45.574;9.252;2022-11-20T06:48:20;11.05;;;5.47;;
47625;SDS011;33342;45.574;9.252;2022-11-20T06:50:48;9.60;;;4.95;;
47625;SDS011;33342;45.574;9.252;2022-11-20T06:53:15;10.48;;;5.03;;
47625;SDS011;33342;45.574;9.252;2022-11-20T06:55:43;9.35;;;4.95;;
47625;SDS011;33342;45.574;9.252;2022-11-20T06:58:12;8.02;;;4.40;;
47625;SDS011;33342;45.574;9.252;2022-11-20T07:00:39;9.93;;;4.60;;
47625;SDS011;33342;45.574;9.252;2022-11-20T07:03:07;8.98;;;4.50;;
47625;SDS011;33342;45.574;9.252;2022-11-20T07:05:36;15.15;;;4.57;;
47625;SDS011;33342;45.574;9.252;2022-11-20T07:08:04;9.77;;;4.55;;
47625;SDS011;33342;45.574;9.252;2022-11-20T07:10:32;9.57;;;4.68;;
47625;SDS011;33342;45.574;9.252;2022-11-20T07:12:59;8.27;;;4.15;;
47625;SDS011;33342;45.574;9.252;2022-11-20T07:15:26;9.15;;;4.25;;
47625;SDS011;33342;45.574;9.252;2022-11-20T07:17:53;8.82;;;4.50;;
47625;SDS011;33342;45.574;9.252;2022-11-20T07:20:20;10.85;;;4.50;;
47625;SDS011;33342;45.574;9.252;2022-11-20T07:22:47;9.50;;;4.78;;
47625;SDS011;33342;45.574;9.252;2022-11-20T07:25:21;8.73;;;4.63;;
47625;SDS011;33342;45.574;9.252;2022-11-20T07:27:49;8.88;;;4.78;;
47625;SDS011;33342;45.574;9.252;2022-11-20T07:30:16;10.38;;;4.88;;
47625;SDS011;33342;45.574;9.252;2022-11-20T07:32:47;9.50;;;4.45;;
47625;SDS011;33342;45.574;9.252;2022-11-20T07:35:17;10.20;;;4.55;;
47625;SDS011;33342;45.574;9.252;2022-11-20T07:37:45;8.43;;;4.60;;
47625;SDS011;33342;45.574;9.252;2022-11-20T07:40:13;9.60;;;5.00;;
47625;SDS011;33342;45.574;9.252;2022-11-20T07:42:50;8.73;;;4.45;;
47625;SDS011;33342;45.574;9.252;2022-11-20T07:45:19;10.10;;;4.57;;
47625;SDS011;33342;45.574;9.252;2022-11-20T07:47:48;8.80;;;5.00;;
47625;SDS011;33342;45.574;9.252;2022-11-20T07:50:15;11.18;;;5.53;;
47625;SDS011;33342;45.574;9.252;2022-11-20T07:52:43;9.68;;;6.05;;
47625;SDS011;33342;45.574;9.252;2022-11-20T07:55:10;9.48;;;5.22;;
47625;SDS011;33342;45.574;9.252;2022-11-20T07:57:38;10.27;;;5.60;;
47625;SDS011;33342;45.574;9.252;2022-11-20T08:00:06;11.82;;;4.97;;
47625;SDS011;33342;45.574;9.252;2022-11-20T08:02:37;11.38;;;4.88;;
47625;SDS011;33342;45.574;9.252;2022-11-20T08:05:06;11.45;;;5.45;;
47625;SDS011;33342;45.574;9.252;2022-11-20T08:07:40;10.55;;;6.03;;
47625;SDS011;33342;45.574;9.252;2022-11-20T08:10:09;9.25;;;5.30;;
47625;SDS011;33342;45.574;9.252;2022-11-20T08:12:43;9.13;;;5.43;;
47625;SDS011;33342;45.574;9.252;2022-11-20T08:15:32;10.02;;;5.20;;
47625;SDS011;33342;45.574;9.252;2022-11-20T08:18:20;11.15;;;5.68;;
47625;SDS011;33342;45.574;9.252;2022-11-20T08:21:07;11.18;;;5.95;;
47625;SDS011;33342;45.574;9.252;2022-11-20T08:23:34;9.77;;;5.43;;
47625;SDS011;33342;45.574;9.252;2022-11-20T08:26:01;9.77;;;5.47;;
47625;SDS011;33342;45.574;9.252;2022-11-20T08:28:28;11.50;;;5.68;;
47625;SDS011;33342;45.574;9.252;2022-11-20T08:30:59;10.90;;;6.47;;
47625;SDS011;33342;45.574;9.252;2022-11-20T08:33:27;10.32;;;5.57;;
47625;SDS011;33342;45.574;9.252;2022-11-20T08:36:04;10.50;;;5.60;;
47625;SDS011;33342;45.574;9.252;2022-11-20T08:38:32;11.30;;;6.32;;
47625;SDS011;33342;45.574;9.252;2022-11-20T08:40:59;10.20;;;6.15;;
47625;SDS011;33342;45.574;9.252;2022-11-20T08:43:46;12.35;;;7.00;;
47625;SDS011;33342;45.574;9.252;2022-11-20T08:46:13;11.10;;;6.53;;
47625;SDS011;33342;45.574;9.252;2022-11-20T08:48:41;9.98;;;5.95;;
47625;SDS011;33342;45.574;9.252;2022-11-20T08:51:08;11.75;;;5.53;;
47625;SDS011;33342;45.574;9.252;2022-11-20T08:53:36;10.25;;;6.10;;
47625;SDS011;33342;45.574;9.252;2022-11-20T08:56:03;10.15;;;6.60;;
47625;SDS011;33342;45.574;9.252;2022-11-20T08:58:31;8.68;;;5.78;;
47625;SDS011;33342;45.574;9.252;2022-11-20T09:01:18;8.88;;;5.40;;
47625;SDS011;33342;45.574;9.252;2022-11-20T09:03:47;11.70;;;6.53;;
47625;SDS011;33342;45.574;9.252;2022-11-20T09:06:14;11.60;;;5.60;;
47625;SDS011;33342;45.574;9.252;2022-11-20T09:08:42;9.95;;;5.70;;
47625;SDS011;33342;45.574;9.252;2022-11-20T09:11:09;10.82;;;6.10;;
47625;SDS011;33342;45.574;9.252;2022-11-20T09:13:36;11.82;;;6.18;;
47625;SDS011;33342;45.574;9.252;2022-11-20T09:18:33;10.65;;;5.68;;
47625;SDS011;33342;45.574;9.252;2022-11-20T09:21:03;12.55;;;6.35;;
47625;SDS011;33342;45.574;9.252;2022-11-20T09:23:32;24.90;;;9.10;;
47625;SDS011;33342;45.574;9.252;2022-11-20T09:26:02;11.13;;;6.10;;
47625;SDS011;33342;45.574;9.252;2022-11-20T09:28:30;9.02;;;4.90;;
47625;SDS011;33342;45.574;9.252;2022-11-20T09:30:58;24.75;;;9.23;;
47625;SDS011;33342;45.574;9.252;2022-11-20T09:33:25;11.77;;;6.22;;
47625;SDS011;33342;45.574;9.252;2022-11-20T09:35:52;11.40;;;6.05;;
47625;SDS011;33342;45.574;9.252;2022-11-20T09:38:19;11.52;;;6.13;;
47625;SDS011;33342;45.574;9.252;2022-11-20T09:40:49;10.23;;;6.18;;
47625;SDS011;33342;45.574;9.252;2022-11-20T09:54:48;9.32;;;5.00;;
47625;SDS011;33342;45.574;9.252;2022-11-20T09:57:28;10.02;;;5.00;;
47625;SDS011;33342;45.574;9.252;2022-11-20T10:00:03;9.38;;;5.22;;
47625;SDS011;33342;45.574;9.252;2022-11-20T10:02:47;11.02;;;4.60;;
47625;SDS011;33342;45.574;9.252;2022-11-20T10:05:25;27.92;;;6.05;;
47625;SDS011;33342;45.574;9.252;2022-11-20T10:14:03;11.45;;;4.78;;
47625;SDS011;33342;45.574;9.252;2022-11-20T10:22:31;162.55;;;19.80;;
47625;SDS011;33342;45.574;9.252;2022-11-20T10:27:49;9.48;;;4.80;;
47625;SDS011;33342;45.574;9.252;2022-11-20T10:30:31;7.28;;;4.05;;
47625;SDS011;33342;45.574;9.252;2022-11-20T10:33:05;8.25;;;4.35;;
47625;SDS011;33342;45.574;9.252;2022-11-20T10:35:55;9.40;;;4.80;;
47625;SDS011;33342;45.574;9.252;2022-11-20T10:38:39;8.90;;;4.28;;
47625;SDS011;33342;45.574;9.252;2022-11-20T10:41:11;7.43;;;4.38;;
47625;SDS011;33342;45.574;9.252;2022-11-20T10:43:54;7.55;;;4.45;;
47625;SDS011;33342;45.574;9.252;2022-11-20T10:49:16;8.63;;;3.80;;
47625;SDS011;33342;45.574;9.252;2022-11-20T10:51:59;113.45;;;12.98;;
47625;SDS011;33342;45.574;9.252;2022-11-20T10:54:32;7.50;;;3.72;;
47625;SDS011;33342;45.574;9.252;2022-11-20T11:02:31;7.88;;;3.92;;
47625;SDS011;33342;45.574;9.252;2022-11-20T11:06:03;7.85;;;4.25;;
47625;SDS011;33342;45.574;9.252;2022-11-20T11:08:14;8.00;;;3.95;;
47625;SDS011;33342;45.574;9.252;2022-11-20T11:13:49;8.85;;;3.92;;
47625;SDS011;33342;45.574;9.252;2022-11-20T11:16:20;11.32;;;3.55;;
47625;SDS011;33342;45.574;9.252;2022-11-20T11:18:49;6.97;;;3.60;;
47625;SDS011;33342;45.574;9.252;2022-11-20T11:21:23;7.90;;;4.78;;
47625;SDS011;33342;45.574;9.252;2022-11-20T11:23:58;7.88;;;4.15;;
47625;SDS011;33342;45.574;9.252;2022-11-20T11:26:57;9.15;;;4.43;;
47625;SDS011;33342;45.574;9.252;2022-11-20T11:29:25;10.30;;;5.28;;
47625;SDS011;33342;45.574;9.252;2022-11-20T11:32:06;10.25;;;5.10;;
47625;SDS011;33342;45.574;9.252;2022-11-20T11:34:35;8.40;;;4.72;;
47625;SDS011;33342;45.574;9.252;2022-11-20T11:37:02;9.48;;;4.82;;
47625;SDS011;33342;45.574;9.252;2022-11-20T11:39:31;9.20;;;4.93;;
47625;SDS011;33342;45.574;9.252;2022-11-20T11:41:59;10.68;;;5.28;;
47625;SDS011;33342;45.574;9.252;2022-11-20T11:44:28;9.23;;;5.22;;
47625;SDS011;33342;45.574;9.252;2022-11-20T11:52:56;11.32;;;5.40;;
47625;SDS011;33342;45.574;9.252;2022-11-20T11:55:45;10.93;;;6.30;;
47625;SDS011;33342;45.574;9.252;2022-11-20T12:01:12;8.20;;;5.20;;
47625;SDS011;33342;45.574;9.252;2022-11-20T12:07:10;14.25;;;8.68;;
47625;SDS011;33342;45.574;9.252;2022-11-20T12:10:00;13.43;;;8.73;;
47625;SDS011;33342;45.574;9.252;2022-11-20T12:12:36;13.35;;;8.98;;
47625;SDS011;33342;45.574;9.252;2022-11-20T12:15:22;11.95;;;7.03;;
47625;SDS011;33342;45.574;9.252;2022-11-20T12:17:59;13.32;;;7.53;;
47625;SDS011;33342;45.574;9.252;2022-11-20T12:20:32;15.15;;;9.10;;
47625;SDS011;33342;45.574;9.252;2022-11-20T12:23:16;13.05;;;8.18;;
47625;SDS011;33342;45.574;9.252;2022-11-20T12:25:52;14.75;;;8.68;;
47625;SDS011;33342;45.574;9.252;2022-11-20T12:31:23;15.05;;;8.30;;
47625;SDS011;33342;45.574;9.252;2022-11-20T12:34:19;12.82;;;8.15;;
47625;SDS011;33342;45.574;9.252;2022-11-20T12:36:52;15.07;;;8.75;;
47625;SDS011;33342;45.574;9.252;2022-11-20T12:39:47;14.65;;;8.73;;
47625;SDS011;33342;45.574;9.252;2022-11-20T12:57:21;12.02;;;7.40;;
47625;SDS011;33342;45.574;9.252;2022-11-20T13:08:29;14.57;;;6.97;;
47625;SDS011;33342;45.574;9.252;2022-11-20T13:19:34;13.23;;;7.90;;
47625;SDS011;33342;45.574;9.252;2022-11-20T13:22:01;15.88;;;8.32;;
47625;SDS011;33342;45.574;9.252;2022-11-20T13:24:30;13.98;;;8.07;;
47625;SDS011;33342;45.574;9.252;2022-11-20T13:29:34;13.07;;;9.38;;
47625;SDS011;33342;45.574;9.252;2022-11-20T13:32:03;13.07;;;7.38;;
47625;SDS011;33342;45.574;9.252;2022-11-20T13:34:33;11.93;;;7.25;;
47625;SDS011;33342;45.574;9.252;2022-11-20T13:37:02;13.43;;;9.55;;
47625;SDS011;33342;45.574;9.252;2022-11-20T13:39:33;12.90;;;8.35;;
47625;SDS011;33342;45.574;9.252;2022-11-20T13:42:02;12.73;;;8.35;;
47625;SDS011;33342;45.574;9.252;2022-11-20T13:44:48;12.23;;;7.20;;
47625;SDS011;33342;45.574;9.252;2022-11-20T13:47:21;12.52;;;7.15;;
47625;SDS011;33342;45.574;9.252;2022-11-20T13:49:54;13.50;;;8.07;;
47625;SDS011;33342;45.574;9.252;2022-11-20T13:55:26;11.85;;;6.70;;
47625;SDS011;33342;45.574;9.252;2022-11-20T14:01:05;11.40;;;6.32;;
47625;SDS011;33342;45.574;9.252;2022-11-20T14:03:44;9.40;;;5.30;;
47625;SDS011;33342;45.574;9.252;2022-11-20T14:06:34;12.20;;;6.07;;
47625;SDS011;33342;45.574;9.252;2022-11-20T14:09:10;9.93;;;5.60;;
47625;SDS011;33342;45.574;9.252;2022-11-20T14:11:54;8.68;;;5.38;;
47625;SDS011;33342;45.574;9.252;2022-11-20T14:14:23;12.68;;;7.95;;
47625;SDS011;33342;45.574;9.252;2022-11-20T14:17:07;9.98;;;5.18;;
47625;SDS011;33342;45.574;9.252;2022-11-20T14:19:43;9.82;;;5.40;;
47625;SDS011;33342;45.574;9.252;2022-11-20T14:22:17;9.95;;;6.82;;
47625;SDS011;33342;45.574;9.252;2022-11-20T14:24:46;13.80;;;6.88;;
47625;SDS011;33342;45.574;9.252;2022-11-20T14:27:41;9.43;;;6.32;;
47625;SDS011;33342;45.574;9.252;2022-11-20T14:30:17;9.00;;;6.03;;
47625;SDS011;33342;45.574;9.252;2022-11-20T14:32:53;9.43;;;6.38;;
47625;SDS011;33342;45.574;9.252;2022-11-20T14:37:52;9.98;;;6.13;;
47625;SDS011;33342;45.574;9.252;2022-11-20T14:42:48;8.48;;;5.10;;
47625;SDS011;33342;45.574;9.252;2022-11-20T14:45:15;9.38;;;5.85;;
47625;SDS011;33342;45.574;9.252;2022-11-20T14:47:43;9.85;;;5.47;;
47625;SDS011;33342;45.574;9.252;2022-11-20T14:50:29;8.85;;;5.47;;
47625;SDS011;33342;45.574;9.252;2022-11-20T14:52:58;9.50;;;5.53;;
47625;SDS011;33342;45.574;9.252;2022-11-20T14:55:34;9.00;;;4.80;;
47625;SDS011;33342;45.574;9.252;2022-11-20T14:58:25;6.90;;;4.50;;
47625;SDS011;33342;45.574;9.252;2022-11-20T15:06:10;7.53;;;4.82;;
47625;SDS011;33342;45.574;9.252;2022-11-20T15:08:39;11.02;;;5.63;;
47625;SDS011;33342;45.574;9.252;2022-11-20T15:11:18;7.38;;;4.72;;
47625;SDS011;33342;45.574;9.252;2022-11-20T15:13:50;7.28;;;4.70;;
47625;SDS011;33342;45.574;9.252;2022-11-20T15:16:18;8.52;;;4.40;;
47625;SDS011;33342;45.574;9.252;2022-11-20T15:18:46;8.55;;;4.47;;
47625;SDS011;33342;45.574;9.252;2022-11-20T15:21:14;6.95;;;3.38;;
47625;SDS011;33342;45.574;9.252;2022-11-20T15:23:43;8.10;;;3.65;;
47625;SDS011;33342;45.574;9.252;2022-11-20T15:26:11;9.07;;;3.22;;
47625;SDS011;33342;45.574;9.252;2022-11-20T15:28:46;7.15;;;3.15;;
47625;SDS011;33342;45.574;9.252;2022-11-20T15:31:15;9.95;;;3.85;;
47625;SDS011;33342;45.574;9.252;2022-11-20T15:33:44;7.97;;;4.60;;
47625;SDS011;33342;45.574;9.252;2022-11-20T15:36:12;7.45;;;3.20;;
47625;SDS011;33342;45.574;9.252;2022-11-20T15:38:39;7.95;;;3.63;;
47625;SDS011;33342;45.574;9.252;2022-11-20T15:41:06;7.40;;;3.58;;
47625;SDS011;33342;45.574;9.252;2022-11-20T15:43:33;8.32;;;3.20;;
47625;SDS011;33342;45.574;9.252;2022-11-20T15:48:47;7.88;;;3.83;;
47625;SDS011;33342;45.574;9.252;2022-11-20T15:51:30;6.60;;;2.95;;
47625;SDS011;33342;45.574;9.252;2022-11-20T15:54:15;7.20;;;3.17;;
47625;SDS011;33342;45.574;9.252;2022-11-20T15:56:47;6.97;;;3.20;;
47625;SDS011;33342;45.574;9.252;2022-11-20T15:59:15;7.13;;;3.35;;
47625;SDS011;33342;45.574;9.252;2022-11-20T16:01:42;9.82;;;4.95;;
47625;SDS011;33342;45.574;9.252;2022-11-20T16:04:10;12.75;;;5.28;;
47625;SDS011;33342;45.574;9.252;2022-11-20T16:06:41;10.85;;;4.20;;
47625;SDS011;33342;45.574;9.252;2022-11-20T16:09:09;11.20;;;4.35;;
47625;SDS011;33342;45.574;9.252;2022-11-20T16:11:36;10.30;;;4.20;;
47625;SDS011;33342;45.574;9.252;2022-11-20T16:14:04;9.15;;;4.22;;
47625;SDS011;33342;45.574;9.252;2022-11-20T16:16:50;8.80;;;4.07;;
47625;SDS011;33342;45.574;9.252;2022-11-20T16:19:17;9.10;;;4.20;;
47625;SDS011;33342;45.574;9.252;2022-11-20T16:21:45;8.15;;;4.18;;
47625;SDS011;33342;45.574;9.252;2022-11-20T16:24:12;9.15;;;3.67;;
47625;SDS011;33342;45.574;9.252;2022-11-20T16:26:40;8.13;;;3.88;;
47625;SDS011;33342;45.574;9.252;2022-11-20T16:29:08;8.77;;;4.18;;
47625;SDS011;33342;45.574;9.252;2022-11-20T16:31:35;8.45;;;4.10;;
47625;SDS011;33342;45.574;9.252;2022-11-20T16:34:04;10.15;;;4.13;;
47625;SDS011;33342;45.574;9.252;2022-11-20T16:36:40;8.52;;;4.25;;
47625;SDS011;33342;45.574;9.252;2022-11-20T16:39:10;9.18;;;4.22;;
47625;SDS011;33342;45.574;9.252;2022-11-20T16:41:38;8.45;;;4.88;;
47625;SDS011;33342;45.574;9.252;2022-11-20T16:44:09;8.65;;;4.18;;
47625;SDS011;33342;45.574;9.252;2022-11-20T16:46:37;8.85;;;4.57;;
47625;SDS011;33342;45.574;9.252;2022-11-20T16:49:08;9.27;;;4.13;;
47625;SDS011;33342;45.574;9.252;2022-11-20T16:51:38;8.73;;;4.18;;
47625;SDS011;33342;45.574;9.252;2022-11-20T16:54:06;8.15;;;3.95;;
47625;SDS011;33342;45.574;9.252;2022-11-20T16:56:34;9.98;;;4.20;;
47625;SDS011;33342;45.574;9.252;2022-11-20T16:59:01;8.95;;;4.55;;
47625;SDS011;33342;45.574;9.252;2022-11-20T17:01:29;9.55;;;4.60;;
47625;SDS011;33342;45.574;9.252;2022-11-20T17:04:00;8.02;;;4.40;;
47625;SDS011;33342;45.574;9.252;2022-11-20T17:06:29;10.98;;;4.72;;